sensor_id;sensor_type;location;lat;lon;timestamp;pressure;altitude;pressure_sealevel;temperature
54746;BMP180;40640;48.130;11.356;2023-02-01T00:03:58;96058.00;;;5.80
54746;BMP180;40640;48.130;11.356;2023-02-01T00:08:01;96061.00;;;6.10
54746;BMP180;40640;48.130;11.356;2023-02-01T00:12:04;96053.00;;;5.80
54746;BMP180;40640;48.130;11.356;2023-02-01T00:16:09;96049.00;;;5.70
54746;BMP180;40640;48.130;11.356;2023-02-01T00:20:13;96063.00;;;5.80
54746;BMP180;40640;48.130;11.356;2023-02-01T00:24:16;96055.00;;;5.60
54746;BMP180;40640;48.130;11.356;2023-02-01T00:28:19;96060.00;;;5.70
54746;BMP180;40640;48.130;11.356;2023-02-01T00:32:23;96051.00;;;5.60
54746;BMP180;40640;48.130;11.356;2023-02-01T00:36:26;96053.00;;;5.70
54746;BMP180;40640;48.130;11.356;2023-02-01T00:40:30;96036.00;;;5.50
54746;BMP180;40640;48.130;11.356;2023-02-01T00:44:33;96055.00;;;5.40
54746;BMP180;40640;48.130;11.356;2023-02-01T00:48:38;96047.00;;;5.50
54746;BMP180;40640;48.130;11.356;2023-02-01T00:52:41;96058.00;;;5.20
54746;BMP180;40640;48.130;11.356;2023-02-01T00:56:44;96043.00;;;5.50
54746;BMP180;40640;48.130;11.356;2023-02-01T01:00:47;96040.00;;;5.70
54746;BMP180;40640;48.130;11.356;2023-02-01T01:04:52;96023.00;;;5.40
54746;BMP180;40640;48.130;11.356;2023-02-01T01:08:57;96031.00;;;5.60
54746;BMP180;40640;48.130;11.356;2023-02-01T01:13:00;96031.00;;;5.50
54746;BMP180;40640;48.130;11.356;2023-02-01T01:17:03;96031.00;;;5.70
54746;BMP180;40640;48.130;11.356;2023-02-01T01:21:08;96031.00;;;5.70
54746;BMP180;40640;48.130;11.356;2023-02-01T01:25:11;96034.00;;;5.80
54746;BMP180;40640;48.130;11.356;2023-02-01T01:29:13;96027.00;;;5.60
54746;BMP180;40640;48.130;11.356;2023-02-01T01:33:16;96029.00;;;5.60
54746;BMP180;40640;48.130;11.356;2023-02-01T01:37:20;96010.00;;;5.40
54746;BMP180;40640;48.130;11.356;2023-02-01T01:41:25;96027.00;;;5.70
54746;BMP180;40640;48.130;11.356;2023-02-01T01:45:31;96020.00;;;5.80
54746;BMP180;40640;48.130;11.356;2023-02-01T01:49:34;96014.00;;;5.70
54746;BMP180;40640;48.130;11.356;2023-02-01T01:53:44;96000.00;;;5.60
54746;BMP180;40640;48.130;11.356;2023-02-01T01:57:51;96003.00;;;5.40
54746;BMP180;40640;48.130;11.356;2023-02-01T02:01:56;95993.00;;;5.50
54746;BMP180;40640;48.130;11.356;2023-02-01T02:05:59;95985.00;;;5.20
54746;BMP180;40640;48.130;11.356;2023-02-01T02:10:07;95986.00;;;5.40
54746;BMP180;40640;48.130;11.356;2023-02-01T02:14:13;95974.00;;;5.00
54746;BMP180;40640;48.130;11.356;2023-02-01T02:18:22;95987.00;;;5.20
54746;BMP180;40640;48.130;11.356;2023-02-01T02:27:18;96006.00;;;5.20
54746;BMP180;40640;48.130;11.356;2023-02-01T02:31:51;95999.00;;;5.20
54746;BMP180;40640;48.130;11.356;2023-02-01T02:36:00;96001.00;;;5.00
54746;BMP180;40640;48.130;11.356;2023-02-01T02:40:08;96009.00;;;4.90
54746;BMP180;40640;48.130;11.356;2023-02-01T02:44:21;95999.00;;;5.10
54746;BMP180;40640;48.130;11.356;2023-02-01T02:48:46;95979.00;;;5.10
54746;BMP180;40640;48.130;11.356;2023-02-01T02:52:57;95982.00;;;5.20
54746;BMP180;40640;48.130;11.356;2023-02-01T02:57:20;95983.00;;;5.20
54746;BMP180;40640;48.130;11.356;2023-02-01T03:01:43;95962.00;;;5.40
54746;BMP180;40640;48.130;11.356;2023-02-01T03:06:03;95977.00;;;5.40
54746;BMP180;40640;48.130;11.356;2023-02-01T03:10:14;95958.00;;;5.30
54746;BMP180;40640;48.130;11.356;2023-02-01T03:14:21;95965.00;;;5.40
54746;BMP180;40640;48.130;11.356;2023-02-01T03:18:30;95970.00;;;5.50
54746;BMP180;40640;48.130;11.356;2023-02-01T03:22:36;95960.00;;;5.30
54746;BMP180;40640;48.130;11.356;2023-02-01T03:26:44;95960.00;;;5.40
54746;BMP180;40640;48.130;11.356;2023-02-01T03:30:51;95967.00;;;5.50
54746;BMP180;40640;48.130;11.356;2023-02-01T03:34:55;95966.00;;;5.40
54746;BMP180;40640;48.130;11.356;2023-02-01T03:39:02;95954.00;;;5.50
54746;BMP180;40640;48.130;11.356;2023-02-01T03:43:12;95952.00;;;5.30
54746;BMP180;40640;48.130;11.356;2023-02-01T03:47:20;95956.00;;;5.20
54746;BMP180;40640;48.130;11.356;2023-02-01T03:51:26;95951.00;;;5.30
54746;BMP180;40640;48.130;11.356;2023-02-01T03:55:29;95943.00;;;5.40
54746;BMP180;40640;48.130;11.356;2023-02-01T03:59:34;95957.00;;;5.40
54746;BMP180;40640;48.130;11.356;2023-02-01T04:03:40;95947.00;;;5.50
54746;BMP180;40640;48.130;11.356;2023-02-01T04:07:43;95957.00;;;5.50
54746;BMP180;40640;48.130;11.356;2023-02-01T04:11:46;95960.00;;;5.30
54746;BMP180;40640;48.130;11.356;2023-02-01T04:15:50;95941.00;;;5.30
54746;BMP180;40640;48.130;11.356;2023-02-01T04:19:53;95949.00;;;5.40
54746;BMP180;40640;48.130;11.356;2023-02-01T04:23:56;95945.00;;;5.50
54746;BMP180;40640;48.130;11.356;2023-02-01T04:27:59;95948.00;;;5.40
54746;BMP180;40640;48.130;11.356;2023-02-01T04:32:04;95945.00;;;5.50
54746;BMP180;40640;48.130;11.356;2023-02-01T04:36:07;95959.00;;;5.30
54746;BMP180;40640;48.130;11.356;2023-02-01T04:40:11;95954.00;;;5.40
54746;BMP180;40640;48.130;11.356;2023-02-01T04:44:15;95964.00;;;5.20
54746;BMP180;40640;48.130;11.356;2023-02-01T04:48:20;95952.00;;;5.20
54746;BMP180;40640;48.130;11.356;2023-02-01T04:52:25;95945.00;;;5.50
54746;BMP180;40640;48.130;11.356;2023-02-01T04:56:28;95961.00;;;5.30
54746;BMP180;40640;48.130;11.356;2023-02-01T05:00:31;95946.00;;;5.20
54746;BMP180;40640;48.130;11.356;2023-02-01T05:04:36;95957.00;;;5.20
54746;BMP180;40640;48.130;11.356;2023-02-01T05:08:38;95947.00;;;5.10
54746;BMP180;40640;48.130;11.356;2023-02-01T05:12:42;95957.00;;;5.10
54746;BMP180;40640;48.130;11.356;2023-02-01T05:17:02;95957.00;;;5.10
54746;BMP180;40640;48.130;11.356;2023-02-01T05:21:06;95962.00;;;5.30
54746;BMP180;40640;48.130;11.356;2023-02-01T05:25:09;95955.00;;;5.40
54746;BMP180;40640;48.130;11.356;2023-02-01T05:29:13;95952.00;;;5.40
54746;BMP180;40640;48.130;11.356;2023-02-01T05:33:16;95956.00;;;5.30
54746;BMP180;40640;48.130;11.356;2023-02-01T05:37:20;95929.00;;;5.40
54746;BMP180;40640;48.130;11.356;2023-02-01T05:41:23;95946.00;;;5.40
54746;BMP180;40640;48.130;11.356;2023-02-01T05:45:26;95945.00;;;5.20
54746;BMP180;40640;48.130;11.356;2023-02-01T05:49:29;95954.00;;;5.20
54746;BMP180;40640;48.130;11.356;2023-02-01T05:53:33;95947.00;;;5.30
54746;BMP180;40640;48.130;11.356;2023-02-01T05:57:35;95949.00;;;5.20
54746;BMP180;40640;48.130;11.356;2023-02-01T06:01:38;95945.00;;;5.20
54746;BMP180;40640;48.130;11.356;2023-02-01T06:05:43;95945.00;;;5.20
54746;BMP180;40640;48.130;11.356;2023-02-01T06:09:47;95947.00;;;5.50
54746;BMP180;40640;48.130;11.356;2023-02-01T06:13:50;95943.00;;;5.50
54746;BMP180;40640;48.130;11.356;2023-02-01T06:17:53;95964.00;;;5.50
54746;BMP180;40640;48.130;11.356;2023-02-01T06:21:56;95962.00;;;5.50
54746;BMP180;40640;48.130;11.356;2023-02-01T06:26:02;95966.00;;;5.40
54746;BMP180;40640;48.130;11.356;2023-02-01T06:30:07;95967.00;;;5.50
54746;BMP180;40640;48.130;11.356;2023-02-01T06:34:11;95958.00;;;5.60
54746;BMP180;40640;48.130;11.356;2023-02-01T06:38:14;95959.00;;;5.40
54746;BMP180;40640;48.130;11.356;2023-02-01T06:42:18;95958.00;;;5.50
54746;BMP180;40640;48.130;11.356;2023-02-01T06:46:21;95952.00;;;5.50
54746;BMP180;40640;48.130;11.356;2023-02-01T06:50:24;95946.00;;;5.50
54746;BMP180;40640;48.130;11.356;2023-02-01T06:54:26;95935.00;;;5.30
54746;BMP180;40640;48.130;11.356;2023-02-01T06:58:32;95954.00;;;5.60
54746;BMP180;40640;48.130;11.356;2023-02-01T07:02:35;95945.00;;;5.40
54746;BMP180;40640;48.130;11.356;2023-02-01T07:06:38;95951.00;;;5.50
54746;BMP180;40640;48.130;11.356;2023-02-01T07:10:41;95935.00;;;5.60
54746;BMP180;40640;48.130;11.356;2023-02-01T07:14:45;95952.00;;;5.50
54746;BMP180;40640;48.130;11.356;2023-02-01T07:18:49;95943.00;;;5.60
54746;BMP180;40640;48.130;11.356;2023-02-01T07:22:55;95936.00;;;5.70
54746;BMP180;40640;48.130;11.356;2023-02-01T07:26:58;95933.00;;;5.80
54746;BMP180;40640;48.130;11.356;2023-02-01T07:31:07;95928.00;;;5.70
54746;BMP180;40640;48.130;11.356;2023-02-01T07:35:11;95932.00;;;5.60
54746;BMP180;40640;48.130;11.356;2023-02-01T07:39:13;95930.00;;;5.70
54746;BMP180;40640;48.130;11.356;2023-02-01T07:43:16;95923.00;;;5.60
54746;BMP180;40640;48.130;11.356;2023-02-01T07:47:20;95925.00;;;5.60
54746;BMP180;40640;48.130;11.356;2023-02-01T07:51:23;95924.00;;;5.70
54746;BMP180;40640;48.130;11.356;2023-02-01T07:55:26;95928.00;;;5.50
54746;BMP180;40640;48.130;11.356;2023-02-01T07:59:29;95935.00;;;5.60
54746;BMP180;40640;48.130;11.356;2023-02-01T08:03:33;95941.00;;;5.50
54746;BMP180;40640;48.130;11.356;2023-02-01T08:07:36;95956.00;;;5.80
54746;BMP180;40640;48.130;11.356;2023-02-01T08:11:39;95967.00;;;5.80
54746;BMP180;40640;48.130;11.356;2023-02-01T08:15:42;95980.00;;;6.00
54746;BMP180;40640;48.130;11.356;2023-02-01T08:19:46;95967.00;;;5.90
54746;BMP180;40640;48.130;11.356;2023-02-01T08:23:49;95973.00;;;5.80
54746;BMP180;40640;48.130;11.356;2023-02-01T08:27:51;95974.00;;;6.00
54746;BMP180;40640;48.130;11.356;2023-02-01T08:31:55;95983.00;;;6.00
54746;BMP180;40640;48.130;11.356;2023-02-01T08:36:02;95999.00;;;5.70
54746;BMP180;40640;48.130;11.356;2023-02-01T08:40:06;95975.00;;;5.80
54746;BMP180;40640;48.130;11.356;2023-02-01T08:44:09;95962.00;;;5.90
54746;BMP180;40640;48.130;11.356;2023-02-01T08:48:12;95958.00;;;5.90
54746;BMP180;40640;48.130;11.356;2023-02-01T08:52:16;95956.00;;;5.90
54746;BMP180;40640;48.130;11.356;2023-02-01T08:56:19;95954.00;;;6.00
54746;BMP180;40640;48.130;11.356;2023-02-01T09:00:22;95972.00;;;6.00
54746;BMP180;40640;48.130;11.356;2023-02-01T09:04:26;95959.00;;;6.20
54746;BMP180;40640;48.130;11.356;2023-02-01T09:08:30;95962.00;;;6.20
54746;BMP180;40640;48.130;11.356;2023-02-01T09:12:34;95965.00;;;6.30
54746;BMP180;40640;48.130;11.356;2023-02-01T09:16:37;95995.00;;;6.40
54746;BMP180;40640;48.130;11.356;2023-02-01T09:20:40;95978.00;;;6.20
54746;BMP180;40640;48.130;11.356;2023-02-01T09:24:44;96000.00;;;6.40
54746;BMP180;40640;48.130;11.356;2023-02-01T09:28:47;96005.00;;;6.40
54746;BMP180;40640;48.130;11.356;2023-02-01T09:32:50;95986.00;;;6.20
54746;BMP180;40640;48.130;11.356;2023-02-01T09:36:53;95993.00;;;6.40
54746;BMP180;40640;48.130;11.356;2023-02-01T09:40:57;95992.00;;;6.50
54746;BMP180;40640;48.130;11.356;2023-02-01T09:45:14;95993.00;;;6.60
54746;BMP180;40640;48.130;11.356;2023-02-01T09:49:20;95989.00;;;6.70
54746;BMP180;40640;48.130;11.356;2023-02-01T09:53:28;95981.00;;;6.60
54746;BMP180;40640;48.130;11.356;2023-02-01T09:57:41;95983.00;;;6.70
54746;BMP180;40640;48.130;11.356;2023-02-01T10:01:47;95977.00;;;6.80
54746;BMP180;40640;48.130;11.356;2023-02-01T10:06:24;95978.00;;;6.90
54746;BMP180;40640;48.130;11.356;2023-02-01T10:10:30;95985.00;;;6.70
54746;BMP180;40640;48.130;11.356;2023-02-01T10:14:51;95978.00;;;6.60
54746;BMP180;40640;48.130;11.356;2023-02-01T10:19:22;95987.00;;;6.80
54746;BMP180;40640;48.130;11.356;2023-02-01T10:23:52;95984.00;;;6.70
54746;BMP180;40640;48.130;11.356;2023-02-01T10:28:01;95992.00;;;6.60
54746;BMP180;40640;48.130;11.356;2023-02-01T10:32:20;96002.00;;;6.60
54746;BMP180;40640;48.130;11.356;2023-02-01T10:36:29;95993.00;;;6.80
54746;BMP180;40640;48.130;11.356;2023-02-01T10:40:33;96014.00;;;7.00
54746;BMP180;40640;48.130;11.356;2023-02-01T10:44:41;96017.00;;;6.80
54746;BMP180;40640;48.130;11.356;2023-02-01T10:48:47;96025.00;;;6.80
54746;BMP180;40640;48.130;11.356;2023-02-01T10:52:51;96011.00;;;6.90
54746;BMP180;40640;48.130;11.356;2023-02-01T10:56:55;96016.00;;;6.70
54746;BMP180;40640;48.130;11.356;2023-02-01T11:01:00;96007.00;;;6.80
54746;BMP180;40640;48.130;11.356;2023-02-01T11:05:09;96017.00;;;6.90
54746;BMP180;40640;48.130;11.356;2023-02-01T11:09:18;96008.00;;;7.10
54746;BMP180;40640;48.130;11.356;2023-02-01T11:13:29;96022.00;;;6.90
54746;BMP180;40640;48.130;11.356;2023-02-01T11:17:35;96022.00;;;6.80
54746;BMP180;40640;48.130;11.356;2023-02-01T11:21:41;96027.00;;;6.70
54746;BMP180;40640;48.130;11.356;2023-02-01T11:25:52;96035.00;;;6.80
54746;BMP180;40640;48.130;11.356;2023-02-01T11:30:00;96034.00;;;6.70
54746;BMP180;40640;48.130;11.356;2023-02-01T11:34:08;96033.00;;;6.80
54746;BMP180;40640;48.130;11.356;2023-02-01T11:38:22;96030.00;;;6.90
54746;BMP180;40640;48.130;11.356;2023-02-01T11:42:29;96035.00;;;6.90
54746;BMP180;40640;48.130;11.356;2023-02-01T11:46:34;96039.00;;;6.80
54746;BMP180;40640;48.130;11.356;2023-02-01T11:50:44;96046.00;;;6.90
54746;BMP180;40640;48.130;11.356;2023-02-01T11:55:05;96039.00;;;6.70
54746;BMP180;40640;48.130;11.356;2023-02-01T11:59:25;96031.00;;;6.90
54746;BMP180;40640;48.130;11.356;2023-02-01T12:04:10;96038.00;;;6.80
54746;BMP180;40640;48.130;11.356;2023-02-01T12:12:52;96020.00;;;6.80
54746;BMP180;40640;48.130;11.356;2023-02-01T12:17:15;96018.00;;;6.70
54746;BMP180;40640;48.130;11.356;2023-02-01T12:21:33;95998.00;;;6.80
54746;BMP180;40640;48.130;11.356;2023-02-01T12:25:53;95993.00;;;6.60
54746;BMP180;40640;48.130;11.356;2023-02-01T12:30:14;95992.00;;;6.70
54746;BMP180;40640;48.130;11.356;2023-02-01T12:34:37;95988.00;;;6.60
54746;BMP180;40640;48.130;11.356;2023-02-01T12:38:52;95988.00;;;6.50
54746;BMP180;40640;48.130;11.356;2023-02-01T12:43:01;95990.00;;;6.60
54746;BMP180;40640;48.130;11.356;2023-02-01T12:47:12;95973.00;;;6.80
54746;BMP180;40640;48.130;11.356;2023-02-01T12:51:19;95971.00;;;6.60
54746;BMP180;40640;48.130;11.356;2023-02-01T12:55:24;95966.00;;;6.60
54746;BMP180;40640;48.130;11.356;2023-02-01T12:59:33;95949.00;;;6.50
54746;BMP180;40640;48.130;11.356;2023-02-01T13:03:42;95951.00;;;6.50
54746;BMP180;40640;48.130;11.356;2023-02-01T13:07:50;95958.00;;;6.50
54746;BMP180;40640;48.130;11.356;2023-02-01T13:12:11;95952.00;;;6.60
54746;BMP180;40640;48.130;11.356;2023-02-01T13:16:18;95939.00;;;6.60
54746;BMP180;40640;48.130;11.356;2023-02-01T13:20:30;95946.00;;;6.60
54746;BMP180;40640;48.130;11.356;2023-02-01T13:24:39;95941.00;;;6.60
54746;BMP180;40640;48.130;11.356;2023-02-01T13:28:46;95927.00;;;6.60
54746;BMP180;40640;48.130;11.356;2023-02-01T13:33:11;95923.00;;;6.70
54746;BMP180;40640;48.130;11.356;2023-02-01T13:42:20;95926.00;;;6.70
54746;BMP180;40640;48.130;11.356;2023-02-01T13:46:24;95930.00;;;6.90
54746;BMP180;40640;48.130;11.356;2023-02-01T13:50:30;95929.00;;;6.70
54746;BMP180;40640;48.130;11.356;2023-02-01T13:54:38;95925.00;;;6.70
54746;BMP180;40640;48.130;11.356;2023-02-01T13:58:43;95928.00;;;6.60
54746;BMP180;40640;48.130;11.356;2023-02-01T14:03:02;95944.00;;;6.80
54746;BMP180;40640;48.130;11.356;2023-02-01T14:07:18;95914.00;;;6.80
54746;BMP180;40640;48.130;11.356;2023-02-01T14:11:43;95950.00;;;6.80
54746;BMP180;40640;48.130;11.356;2023-02-01T14:16:11;95944.00;;;6.80
54746;BMP180;40640;48.130;11.356;2023-02-01T14:20:46;95944.00;;;6.70
54746;BMP180;40640;48.130;11.356;2023-02-01T14:24:56;95935.00;;;6.70
54746;BMP180;40640;48.130;11.356;2023-02-01T14:29:19;95946.00;;;6.80
54746;BMP180;40640;48.130;11.356;2023-02-01T14:33:25;95937.00;;;6.80
54746;BMP180;40640;48.130;11.356;2023-02-01T14:37:31;95946.00;;;6.90
54746;BMP180;40640;48.130;11.356;2023-02-01T14:41:35;95935.00;;;6.90
54746;BMP180;40640;48.130;11.356;2023-02-01T14:45:50;95936.00;;;6.80
54746;BMP180;40640;48.130;11.356;2023-02-01T14:49:56;95944.00;;;6.90
54746;BMP180;40640;48.130;11.356;2023-02-01T14:54:01;95936.00;;;6.90
54746;BMP180;40640;48.130;11.356;2023-02-01T14:58:06;95934.00;;;7.00
54746;BMP180;40640;48.130;11.356;2023-02-01T15:02:21;95924.00;;;6.90
54746;BMP180;40640;48.130;11.356;2023-02-01T15:06:33;95944.00;;;6.70
54746;BMP180;40640;48.130;11.356;2023-02-01T15:10:41;95947.00;;;6.60
54746;BMP180;40640;48.130;11.356;2023-02-01T15:14:46;95952.00;;;6.80
54746;BMP180;40640;48.130;11.356;2023-02-01T15:19:06;95946.00;;;6.50
54746;BMP180;40640;48.130;11.356;2023-02-01T15:23:17;95944.00;;;6.40
54746;BMP180;40640;48.130;11.356;2023-02-01T15:27:20;95956.00;;;6.20
54746;BMP180;40640;48.130;11.356;2023-02-01T15:31:43;95942.00;;;6.20
54746;BMP180;40640;48.130;11.356;2023-02-01T15:35:48;95931.00;;;6.30
54746;BMP180;40640;48.130;11.356;2023-02-01T15:40:03;95941.00;;;6.20
54746;BMP180;40640;48.130;11.356;2023-02-01T15:44:16;95953.00;;;6.30
54746;BMP180;40640;48.130;11.356;2023-02-01T15:48:23;95950.00;;;6.20
54746;BMP180;40640;48.130;11.356;2023-02-01T15:52:37;95970.00;;;6.30
54746;BMP180;40640;48.130;11.356;2023-02-01T15:56:41;95949.00;;;6.30
54746;BMP180;40640;48.130;11.356;2023-02-01T16:00:45;95951.00;;;6.40
54746;BMP180;40640;48.130;11.356;2023-02-01T16:04:48;95943.00;;;6.30
54746;BMP180;40640;48.130;11.356;2023-02-01T16:08:55;95954.00;;;6.40
54746;BMP180;40640;48.130;11.356;2023-02-01T16:13:03;95946.00;;;6.20
54746;BMP180;40640;48.130;11.356;2023-02-01T16:17:07;95955.00;;;6.10
54746;BMP180;40640;48.130;11.356;2023-02-01T16:21:11;95954.00;;;6.30
54746;BMP180;40640;48.130;11.356;2023-02-01T16:25:15;95958.00;;;6.20
54746;BMP180;40640;48.130;11.356;2023-02-01T16:29:18;95953.00;;;6.30
54746;BMP180;40640;48.130;11.356;2023-02-01T16:33:23;95982.00;;;6.20
54746;BMP180;40640;48.130;11.356;2023-02-01T16:37:26;95982.00;;;6.10
54746;BMP180;40640;48.130;11.356;2023-02-01T16:41:32;95983.00;;;6.10
54746;BMP180;40640;48.130;11.356;2023-02-01T16:45:36;95971.00;;;5.90
54746;BMP180;40640;48.130;11.356;2023-02-01T16:49:41;95982.00;;;6.10
54746;BMP180;40640;48.130;11.356;2023-02-01T16:53:45;95961.00;;;6.20
54746;BMP180;40640;48.130;11.356;2023-02-01T16:57:56;95963.00;;;6.30
54746;BMP180;40640;48.130;11.356;2023-02-01T17:01:59;95967.00;;;6.30
54746;BMP180;40640;48.130;11.356;2023-02-01T17:06:02;95956.00;;;6.40
54746;BMP180;40640;48.130;11.356;2023-02-01T17:10:06;95966.00;;;6.50
54746;BMP180;40640;48.130;11.356;2023-02-01T17:14:15;95959.00;;;6.40
54746;BMP180;40640;48.130;11.356;2023-02-01T17:18:18;95963.00;;;6.50
54746;BMP180;40640;48.130;11.356;2023-02-01T17:22:22;95950.00;;;6.60
54746;BMP180;40640;48.130;11.356;2023-02-01T17:26:25;95950.00;;;6.50
54746;BMP180;40640;48.130;11.356;2023-02-01T17:30:29;95945.00;;;6.30
54746;BMP180;40640;48.130;11.356;2023-02-01T17:34:32;95956.00;;;6.40
54746;BMP180;40640;48.130;11.356;2023-02-01T17:38:35;95947.00;;;6.20
54746;BMP180;40640;48.130;11.356;2023-02-01T17:42:38;95945.00;;;6.30
54746;BMP180;40640;48.130;11.356;2023-02-01T17:46:42;95949.00;;;6.50
54746;BMP180;40640;48.130;11.356;2023-02-01T17:50:46;95965.00;;;6.60
54746;BMP180;40640;48.130;11.356;2023-02-01T17:54:50;95966.00;;;6.50
54746;BMP180;40640;48.130;11.356;2023-02-01T17:58:54;95959.00;;;6.70
54746;BMP180;40640;48.130;11.356;2023-02-01T18:02:58;95967.00;;;6.30
54746;BMP180;40640;48.130;11.356;2023-02-01T18:07:02;95955.00;;;6.50
54746;BMP180;40640;48.130;11.356;2023-02-01T18:11:08;95966.00;;;6.50
54746;BMP180;40640;48.130;11.356;2023-02-01T18:15:17;95972.00;;;6.60
54746;BMP180;40640;48.130;11.356;2023-02-01T18:19:21;95960.00;;;6.50
54746;BMP180;40640;48.130;11.356;2023-02-01T18:23:24;95978.00;;;6.40
54746;BMP180;40640;48.130;11.356;2023-02-01T18:27:27;95979.00;;;6.50
54746;BMP180;40640;48.130;11.356;2023-02-01T18:31:31;95976.00;;;6.60
54746;BMP180;40640;48.130;11.356;2023-02-01T18:35:36;95974.00;;;6.60
54746;BMP180;40640;48.130;11.356;2023-02-01T18:39:39;95983.00;;;6.50
54746;BMP180;40640;48.130;11.356;2023-02-01T18:43:42;95989.00;;;6.70
54746;BMP180;40640;48.130;11.356;2023-02-01T18:47:45;95997.00;;;6.70
54746;BMP180;40640;48.130;11.356;2023-02-01T18:51:49;95986.00;;;6.70
54746;BMP180;40640;48.130;11.356;2023-02-01T18:55:53;95976.00;;;6.50
54746;BMP180;40640;48.130;11.356;2023-02-01T18:59:56;95959.00;;;6.60
54746;BMP180;40640;48.130;11.356;2023-02-01T19:03:59;95960.00;;;6.50
54746;BMP180;40640;48.130;11.356;2023-02-01T19:08:20;95961.00;;;6.50
54746;BMP180;40640;48.130;11.356;2023-02-01T19:12:24;95975.00;;;6.40
54746;BMP180;40640;48.130;11.356;2023-02-01T19:16:27;95972.00;;;6.70
54746;BMP180;40640;48.130;11.356;2023-02-01T19:20:30;95965.00;;;6.60
54746;BMP180;40640;48.130;11.356;2023-02-01T19:24:34;95970.00;;;6.90
54746;BMP180;40640;48.130;11.356;2023-02-01T19:28:37;95951.00;;;6.80
54746;BMP180;40640;48.130;11.356;2023-02-01T19:32:40;95939.00;;;6.60
54746;BMP180;40640;48.130;11.356;2023-02-01T19:36:43;95963.00;;;6.60
54746;BMP180;40640;48.130;11.356;2023-02-01T19:40:48;95949.00;;;6.40
54746;BMP180;40640;48.130;11.356;2023-02-01T19:44:51;95972.00;;;6.60
54746;BMP180;40640;48.130;11.356;2023-02-01T19:48:54;95947.00;;;6.50
54746;BMP180;40640;48.130;11.356;2023-02-01T19:52:57;95939.00;;;6.50
54746;BMP180;40640;48.130;11.356;2023-02-01T19:57:01;95958.00;;;6.60
54746;BMP180;40640;48.130;11.356;2023-02-01T20:01:04;95959.00;;;6.70
54746;BMP180;40640;48.130;11.356;2023-02-01T20:05:08;95962.00;;;6.60
54746;BMP180;40640;48.130;11.356;2023-02-01T20:09:13;95967.00;;;6.80
54746;BMP180;40640;48.130;11.356;2023-02-01T20:13:17;95950.00;;;6.70
54746;BMP180;40640;48.130;11.356;2023-02-01T20:17:20;95948.00;;;6.60
54746;BMP180;40640;48.130;11.356;2023-02-01T20:21:23;95963.00;;;6.40
54746;BMP180;40640;48.130;11.356;2023-02-01T20:25:26;95967.00;;;6.50
54746;BMP180;40640;48.130;11.356;2023-02-01T20:29:30;95983.00;;;6.80
54746;BMP180;40640;48.130;11.356;2023-02-01T20:33:33;95985.00;;;6.70
54746;BMP180;40640;48.130;11.356;2023-02-01T20:37:36;95993.00;;;6.60
54746;BMP180;40640;48.130;11.356;2023-02-01T20:41:39;95983.00;;;6.70
54746;BMP180;40640;48.130;11.356;2023-02-01T20:45:43;95984.00;;;6.70
54746;BMP180;40640;48.130;11.356;2023-02-01T20:49:46;95989.00;;;6.50
54746;BMP180;40640;48.130;11.356;2023-02-01T20:53:49;95980.00;;;6.50
54746;BMP180;40640;48.130;11.356;2023-02-01T20:57:55;95979.00;;;6.50
54746;BMP180;40640;48.130;11.356;2023-02-01T21:01:59;95987.00;;;6.70
54746;BMP180;40640;48.130;11.356;2023-02-01T21:06:04;95994.00;;;6.80
54746;BMP180;40640;48.130;11.356;2023-02-01T21:10:08;95988.00;;;6.60
54746;BMP180;40640;48.130;11.356;2023-02-01T21:14:12;95970.00;;;6.60
54746;BMP180;40640;48.130;11.356;2023-02-01T21:18:16;95989.00;;;6.60
54746;BMP180;40640;48.130;11.356;2023-02-01T21:22:19;95978.00;;;6.90
54746;BMP180;40640;48.130;11.356;2023-02-01T21:26:24;95963.00;;;6.80
54746;BMP180;40640;48.130;11.356;2023-02-01T21:30:27;95959.00;;;6.80
54746;BMP180;40640;48.130;11.356;2023-02-01T21:34:31;95963.00;;;6.60
54746;BMP180;40640;48.130;11.356;2023-02-01T21:38:34;95975.00;;;6.90
54746;BMP180;40640;48.130;11.356;2023-02-01T21:42:37;95973.00;;;6.80
54746;BMP180;40640;48.130;11.356;2023-02-01T21:46:42;95973.00;;;6.90
54746;BMP180;40640;48.130;11.356;2023-02-01T21:50:47;95979.00;;;6.80
54746;BMP180;40640;48.130;11.356;2023-02-01T21:54:50;95973.00;;;6.80
54746;BMP180;40640;48.130;11.356;2023-02-01T21:58:59;95970.00;;;7.00
54746;BMP180;40640;48.130;11.356;2023-02-01T22:03:02;95965.00;;;6.60
54746;BMP180;40640;48.130;11.356;2023-02-01T22:07:06;95979.00;;;6.50
54746;BMP180;40640;48.130;11.356;2023-02-01T22:11:09;95975.00;;;6.90
54746;BMP180;40640;48.130;11.356;2023-02-01T22:15:12;95979.00;;;6.80
54746;BMP180;40640;48.130;11.356;2023-02-01T22:19:15;95986.00;;;6.90
54746;BMP180;40640;48.130;11.356;2023-02-01T22:23:19;95966.00;;;6.80
54746;BMP180;40640;48.130;11.356;2023-02-01T22:27:22;95975.00;;;6.80
54746;BMP180;40640;48.130;11.356;2023-02-01T22:31:45;95973.00;;;7.10
54746;BMP180;40640;48.130;11.356;2023-02-01T22:35:48;95967.00;;;6.90
54746;BMP180;40640;48.130;11.356;2023-02-01T22:39:53;95962.00;;;6.70
54746;BMP180;40640;48.130;11.356;2023-02-01T22:43:58;95985.00;;;6.70
54746;BMP180;40640;48.130;11.356;2023-02-01T22:48:02;95967.00;;;6.80
54746;BMP180;40640;48.130;11.356;2023-02-01T22:52:05;95973.00;;;6.80
54746;BMP180;40640;48.130;11.356;2023-02-01T22:56:10;95977.00;;;6.80
54746;BMP180;40640;48.130;11.356;2023-02-01T23:00:14;95958.00;;;6.80
54746;BMP180;40640;48.130;11.356;2023-02-01T23:04:17;95955.00;;;6.60
54746;BMP180;40640;48.130;11.356;2023-02-01T23:08:21;95950.00;;;6.60
54746;BMP180;40640;48.130;11.356;2023-02-01T23:12:25;95967.00;;;6.50
54746;BMP180;40640;48.130;11.356;2023-02-01T23:16:28;95965.00;;;6.60
54746;BMP180;40640;48.130;11.356;2023-02-01T23:20:31;95979.00;;;6.80
54746;BMP180;40640;48.130;11.356;2023-02-01T23:24:34;95985.00;;;6.60
54746;BMP180;40640;48.130;11.356;2023-02-01T23:28:38;95972.00;;;6.40
54746;BMP180;40640;48.130;11.356;2023-02-01T23:32:41;95962.00;;;6.50
54746;BMP180;40640;48.130;11.356;2023-02-01T23:36:44;95981.00;;;6.70
54746;BMP180;40640;48.130;11.356;2023-02-01T23:40:47;95976.00;;;7.10
54746;BMP180;40640;48.130;11.356;2023-02-01T23:44:53;95971.00;;;6.70
54746;BMP180;40640;48.130;11.356;2023-02-01T23:48:56;95986.00;;;6.70
54746;BMP180;40640;48.130;11.356;2023-02-01T23:52:59;95980.00;;;6.70
54746;BMP180;40640;48.130;11.356;2023-02-01T23:57:02;95979.00;;;6.80
